Nearby METAR Reports

 

KBJC - Broomfield/Jeffc, Colorado, USA
Distance from station: NNW 11mi, 17km
Updated: Sat, 10-Apr-2021 5:50pm MDT
Few Clouds
Few Clouds
 Wind from WNW
Wind: WNW 18 mph , 30 km/h, Gust: 31 mph , 50 km/h
Temperature: 68°F , 20°C
Dew Point: 9°F , -13°C
Humidity: 10%
Barometer: 29.73 inHg , 1006.8 hPa
Clouds: Few Clouds
Visibility: 10 miles , 16 km
Cloud details: Few Clouds 12000 ft
2021/04/10 23:50 KBJC 102350Z 29016G27KT 10SM FEW120 20/M13 A2973
KBKF - Buckley Angb/Den, Colorado, USA
Distance from station: E 16mi, 25km
Updated: Sat, 10-Apr-2021 5:58pm MDT
Few Clouds
Few Clouds
 Wind from WNW
Wind: WNW 15 mph , 24 km/h
Temperature: 66°F , 19°C
Dew Point: 9°F , -13°C
Humidity: 10%
Barometer: 29.73 inHg , 1006.8 hPa
Clouds: Few Clouds
Visibility: 10 miles , 16 km
Cloud details: Few Clouds 9000 ft
2021/04/10 23:58 KBKF 102358Z 30013KT 10SM FEW090 19/M13 A2973 RMK AO2A SLP038 T01881135 10199 20145 57021
 
KAPA - Denver/Arapahoe, Colorado, USA
Distance from station: SE 16mi, 26km
Updated: Sat, 10-Apr-2021 5:53pm MDT
Few Clouds
Few Clouds
 Wind from W
Wind: W 8 mph , 13 km/h
Temperature: 66°F , 19°C
Dew Point: 7°F , -14°C
Humidity: 9%
Barometer: 29.73 inHg , 1006.8 hPa
Clouds: Few Clouds
Visibility: 10 miles , 16 km
Cloud details: Few Clouds 12000 ft
Few Clouds 20000 ft
2021/04/10 23:53 KAPA 102353Z 27007KT 10SM FEW120 FEW200 19/M14 A2973 RMK AO2 SLP047 T01891139 10194 20139 56020
KEIK - Erie Muni, Colorado, USA
Distance from station: N 18mi, 29km
Updated: Sat, 10-Apr-2021 6:15pm MDT
Clear
Clear
 Wind from NW
Wind: NW 9 mph , 15 km/h
Temperature: 68°F , 20°C
Dew Point: 9°F , -13°C
Humidity: 10%
Barometer: 29.71 inHg , 1006.1 hPa
Clouds: Clear
Visibility: 10 miles , 16 km
2021/04/11 00:15 KEIK 110015Z AUTO 31008KT 270V340 10SM CLR 20/M13 A2971 RMK AO2 T01971134
 
KBDU - Boulder Muni, Colorado, USA
Distance from station: NNW 22mi, 35km
Updated: Sat, 10-Apr-2021 6:15pm MDT
Clear
Clear
 Wind from WNW
Wind: WNW 10 mph , 17 km/h, Gust: 20 mph , 31 km/h
Temperature: 68°F , 20°C
Dew Point: 10°F , -12°C
Humidity: 10%
Barometer: 29.70 inHg , 1005.8 hPa
Clouds: Clear
Visibility: 10 miles , 16 km
2021/04/11 00:15 KBDU 110015Z AUTO 30009G17KT 10SM CLR 20/M12 A2970 RMK AO2
KDEN - Denver (dia), Colorado, USA
Distance from station: ENE 22mi, 35km
Updated: Sat, 10-Apr-2021 5:53pm MDT
Few Clouds
Few Clouds
 Wind from WNW
Wind: WNW 18 mph , 30 km/h, Gust: 25 mph , 41 km/h
Temperature: 68°F , 20°C
Dew Point: 9°F , -13°C
Humidity: 10%
Barometer: 29.71 inHg , 1006.1 hPa
Clouds: Few Clouds
Visibility: 10 miles , 16 km
Cloud details: Few Clouds 10000 ft
2021/04/10 23:53 KDEN 102353Z 29016G22KT 10SM FEW100 20/M13 A2971 RMK AO2 SLP024 T02001133 10206 20144 56024
 
KFTG - Denver F. Range, Colorado, USA
Distance from station: E 26mi, 42km
Updated: Wed, 29-Jan-2020 9:55pm MST
NOT Current
Overcast
Overcast
 Wind from W
Wind: W 7 mph , 11 km/h
Temperature: 30°F , -1°C
Wind Chill: 23°F , -5°C
Dew Point: 28°F , -2°C
Humidity: 93%
Barometer: 30.06 inHg , 1017.9 hPa
Clouds: Overcast
Visibility: 10 miles , 16 km
Cloud details: Partly cloudy 1300 ft
Mostly cloudy 2300 ft
Overcast 6000 ft
2020/01/30 04:55 KFTG 300455Z AUTO 26006KT 10SM SCT013 BKN023 OVC060 M01/M02 A3006 RMK AO2 T10111023
KLMO - Longmont/Vbrand, Colorado, USA
Distance from station: NNW 29mi, 47km
Updated: Sat, 10-Apr-2021 6:15pm MDT
Clear
Clear
 Wind from SW
Wind: SW 14 mph , 22 km/h, Gust: 17 mph , 28 km/h
Temperature: 72°F , 22°C
Dew Point: 10°F , -12°C
Humidity: 9%
Barometer: 29.71 inHg , 1006.1 hPa
Clouds: Clear
Visibility: 10 miles , 16 km
2021/04/11 00:15 KLMO 110015Z AUTO 23012G15KT 200V260 10SM CLR 22/M12 A2971 RMK AO2 T02151121
 
K0CO - Berthoud Pass, Colorado, USA
Distance from station: W 39mi, 62km
Updated: Sat, 10-Apr-2021 6:15pm MDT
Partly cloudy
Partly cloudy
 Wind from WNW
Wind: WNW 35 mph , 56 km/h, Gust: 43 mph , 69 km/h
Temperature: 30°F , -1°C
Wind Chill: 14°F , -10°C
Dew Point: 16°F , -9°C
Humidity: 55%
Barometer: 30.00 inHg , 1015.9 hPa
Clouds: Partly cloudy
Visibility: 10 miles , 16 km
Cloud details: Partly cloudy 6000 ft
2021/04/11 00:15 K0CO 110015Z AUTO 29030G37KT 10SM SCT060 M01/M09 A3000 RMK AO2
KMNH - Monument/Elbert, Colorado, USA
Distance from station: SSE 43mi, 68km
Updated: Sat, 10-Apr-2021 6:15pm MDT
Partly cloudy
Partly cloudy
 Wind from SSE
Wind: SSE 12 mph , 19 km/h, Gust: 16 mph , 26 km/h
Temperature: 54°F , 12°C
Dew Point: 12°F , -11°C
Humidity: 19%
Barometer: 29.83 inHg , 1010.2 hPa
Clouds: Partly cloudy
Visibility: 10 miles , 16 km
Cloud details: Partly cloudy 11000 ft
2021/04/11 00:15 KMNH 110015Z AUTO 16010G14KT 10SM SCT110 12/M11 A2983 RMK AO2
 
KFNL - Ft Collins/Lovel, Colorado, USA
Distance from station: N 48mi, 78km
Updated: Sat, 10-Apr-2021 5:56pm MDT
Clear
Clear
 Wind from WNW
Wind: WNW 12 mph , 19 km/h, Gust: 20 mph , 31 km/h
Temperature: 68°F , 20°C
Dew Point: 10°F , -12°C
Humidity: 10%
Barometer: 29.70 inHg , 1005.8 hPa
Clouds: Clear
Visibility: 10 miles , 16 km
2021/04/10 23:56 KFNL 102356Z AUTO 30010G17KT 10SM CLR 20/M12 A2970 RMK AO2 SLP034 T02001122 10217 20133 56020